sensor_id;sensor_type;location;lat;lon;timestamp;P1;durP1;ratioP1;P2;durP2;ratioP2
7375;SDS011;3728;42.266;24.944;2023-02-26T00:01:40;10.30;;;7.47;;
7375;SDS011;3728;42.266;24.944;2023-02-26T00:04:08;14.57;;;7.03;;
7375;SDS011;3728;42.266;24.944;2023-02-26T00:06:37;18.77;;;8.13;;
7375;SDS011;3728;42.266;24.944;2023-02-26T00:09:22;19.03;;;8.63;;
7375;SDS011;3728;42.266;24.944;2023-02-26T00:11:50;16.07;;;8.13;;
7375;SDS011;3728;42.266;24.944;2023-02-26T00:14:18;17.60;;;8.50;;
7375;SDS011;3728;42.266;24.944;2023-02-26T00:16:48;22.77;;;9.43;;
7375;SDS011;3728;42.266;24.944;2023-02-26T00:19:23;13.63;;;7.40;;
7375;SDS011;3728;42.266;24.944;2023-02-26T00:21:51;15.37;;;7.70;;
7375;SDS011;3728;42.266;24.944;2023-02-26T00:24:19;18.93;;;8.17;;
7375;SDS011;3728;42.266;24.944;2023-02-26T00:26:46;19.43;;;8.50;;
7375;SDS011;3728;42.266;24.944;2023-02-26T00:29:14;17.13;;;6.93;;
7375;SDS011;3728;42.266;24.944;2023-02-26T00:31:42;17.90;;;7.57;;
7375;SDS011;3728;42.266;24.944;2023-02-26T00:34:11;15.67;;;6.50;;
7375;SDS011;3728;42.266;24.944;2023-02-26T00:36:45;17.60;;;7.20;;
7375;SDS011;3728;42.266;24.944;2023-02-26T00:42:48;14.53;;;6.63;;
7375;SDS011;3728;42.266;24.944;2023-02-26T00:45:16;15.17;;;6.87;;
7375;SDS011;3728;42.266;24.944;2023-02-26T00:50:21;16.03;;;7.47;;
7375;SDS011;3728;42.266;24.944;2023-02-26T00:55:47;18.40;;;7.53;;
7375;SDS011;3728;42.266;24.944;2023-02-26T00:58:15;17.03;;;7.20;;
7375;SDS011;3728;42.266;24.944;2023-02-26T01:00:45;15.53;;;7.33;;
7375;SDS011;3728;42.266;24.944;2023-02-26T01:03:12;19.30;;;8.70;;
7375;SDS011;3728;42.266;24.944;2023-02-26T01:05:40;18.53;;;7.97;;
7375;SDS011;3728;42.266;24.944;2023-02-26T01:08:12;13.17;;;6.97;;
7375;SDS011;3728;42.266;24.944;2023-02-26T01:10:49;15.07;;;6.27;;
7375;SDS011;3728;42.266;24.944;2023-02-26T01:13:17;18.10;;;6.53;;
7375;SDS011;3728;42.266;24.944;2023-02-26T01:15:46;14.57;;;7.00;;
7375;SDS011;3728;42.266;24.944;2023-02-26T01:18:23;14.93;;;6.93;;
7375;SDS011;3728;42.266;24.944;2023-02-26T01:20:59;14.17;;;7.27;;
7375;SDS011;3728;42.266;24.944;2023-02-26T01:23:32;11.37;;;6.93;;
7375;SDS011;3728;42.266;24.944;2023-02-26T01:26:09;12.47;;;6.60;;
7375;SDS011;3728;42.266;24.944;2023-02-26T01:28:50;13.73;;;6.50;;
7375;SDS011;3728;42.266;24.944;2023-02-26T01:31:25;9.40;;;6.47;;
7375;SDS011;3728;42.266;24.944;2023-02-26T01:34:38;17.70;;;6.73;;
7375;SDS011;3728;42.266;24.944;2023-02-26T01:40:33;18.23;;;7.20;;
7375;SDS011;3728;42.266;24.944;2023-02-26T01:43:42;19.07;;;9.77;;
7375;SDS011;3728;42.266;24.944;2023-02-26T01:49:17;36.07;;;26.53;;
7375;SDS011;3728;42.266;24.944;2023-02-26T01:54:23;88.57;;;65.63;;
7375;SDS011;3728;42.266;24.944;2023-02-26T01:57:07;71.70;;;53.80;;
7375;SDS011;3728;42.266;24.944;2023-02-26T01:59:39;40.47;;;31.97;;
7375;SDS011;3728;42.266;24.944;2023-02-26T02:02:11;31.27;;;24.47;;
7375;SDS011;3728;42.266;24.944;2023-02-26T02:04:43;24.17;;;16.53;;
7375;SDS011;3728;42.266;24.944;2023-02-26T02:07:12;17.87;;;14.53;;
7375;SDS011;3728;42.266;24.944;2023-02-26T02:09:41;15.10;;;10.37;;
7375;SDS011;3728;42.266;24.944;2023-02-26T02:12:12;13.23;;;7.60;;
7375;SDS011;3728;42.266;24.944;2023-02-26T02:14:54;17.87;;;7.47;;
7375;SDS011;3728;42.266;24.944;2023-02-26T02:23:55;12.37;;;5.40;;
7375;SDS011;3728;42.266;24.944;2023-02-26T02:35:28;14.27;;;5.97;;
7375;SDS011;3728;42.266;24.944;2023-02-26T02:38:08;11.43;;;5.73;;
7375;SDS011;3728;42.266;24.944;2023-02-26T02:40:55;12.80;;;5.57;;
7375;SDS011;3728;42.266;24.944;2023-02-26T02:43:32;14.83;;;5.93;;
7375;SDS011;3728;42.266;24.944;2023-02-26T02:46:05;16.07;;;6.03;;
7375;SDS011;3728;42.266;24.944;2023-02-26T02:51:45;11.03;;;6.20;;
7375;SDS011;3728;42.266;24.944;2023-02-26T02:57:22;13.83;;;5.97;;
7375;SDS011;3728;42.266;24.944;2023-02-26T03:00:00;10.60;;;5.97;;
7375;SDS011;3728;42.266;24.944;2023-02-26T03:05:44;17.07;;;6.20;;
7375;SDS011;3728;42.266;24.944;2023-02-26T03:08:13;19.50;;;6.10;;
7375;SDS011;3728;42.266;24.944;2023-02-26T03:10:45;18.00;;;6.97;;
7375;SDS011;3728;42.266;24.944;2023-02-26T03:13:17;16.70;;;5.80;;
7375;SDS011;3728;42.266;24.944;2023-02-26T03:26:44;16.67;;;6.00;;
7375;SDS011;3728;42.266;24.944;2023-02-26T03:35:32;23.40;;;7.03;;
7375;SDS011;3728;42.266;24.944;2023-02-26T03:38:13;15.77;;;5.77;;
7375;SDS011;3728;42.266;24.944;2023-02-26T03:40:58;17.43;;;6.10;;
7375;SDS011;3728;42.266;24.944;2023-02-26T03:43:49;12.73;;;5.40;;
7375;SDS011;3728;42.266;24.944;2023-02-26T03:46:43;11.83;;;5.43;;
7375;SDS011;3728;42.266;24.944;2023-02-26T03:49:26;12.93;;;5.60;;
7375;SDS011;3728;42.266;24.944;2023-02-26T03:51:59;13.50;;;6.47;;
7375;SDS011;3728;42.266;24.944;2023-02-26T03:54:50;19.30;;;5.93;;
7375;SDS011;3728;42.266;24.944;2023-02-26T03:57:43;18.00;;;5.40;;
7375;SDS011;3728;42.266;24.944;2023-02-26T04:00:34;16.60;;;5.63;;
7375;SDS011;3728;42.266;24.944;2023-02-26T04:03:10;14.70;;;5.83;;
7375;SDS011;3728;42.266;24.944;2023-02-26T04:05:39;14.67;;;5.60;;
7375;SDS011;3728;42.266;24.944;2023-02-26T04:08:13;17.03;;;7.37;;
7375;SDS011;3728;42.266;24.944;2023-02-26T04:10:43;20.80;;;7.37;;
7375;SDS011;3728;42.266;24.944;2023-02-26T04:13:18;21.50;;;7.60;;
7375;SDS011;3728;42.266;24.944;2023-02-26T04:15:47;16.77;;;6.57;;
7375;SDS011;3728;42.266;24.944;2023-02-26T04:18:14;16.13;;;6.43;;
7375;SDS011;3728;42.266;24.944;2023-02-26T04:20:42;22.67;;;6.83;;
7375;SDS011;3728;42.266;24.944;2023-02-26T04:23:10;23.77;;;6.70;;
7375;SDS011;3728;42.266;24.944;2023-02-26T04:25:38;22.90;;;12.57;;
7375;SDS011;3728;42.266;24.944;2023-02-26T04:28:06;15.67;;;6.90;;
7375;SDS011;3728;42.266;24.944;2023-02-26T04:30:34;15.80;;;6.70;;
7375;SDS011;3728;42.266;24.944;2023-02-26T04:33:04;15.77;;;6.23;;
7375;SDS011;3728;42.266;24.944;2023-02-26T04:35:32;24.43;;;6.67;;
7375;SDS011;3728;42.266;24.944;2023-02-26T04:37:59;18.23;;;5.53;;
7375;SDS011;3728;42.266;24.944;2023-02-26T04:40:27;14.57;;;5.77;;
7375;SDS011;3728;42.266;24.944;2023-02-26T04:42:55;24.13;;;6.13;;
7375;SDS011;3728;42.266;24.944;2023-02-26T04:45:25;15.10;;;6.23;;
7375;SDS011;3728;42.266;24.944;2023-02-26T04:47:54;17.57;;;6.23;;
7375;SDS011;3728;42.266;24.944;2023-02-26T04:50:22;14.30;;;5.80;;
7375;SDS011;3728;42.266;24.944;2023-02-26T04:52:52;18.70;;;6.43;;
7375;SDS011;3728;42.266;24.944;2023-02-26T04:55:20;22.60;;;7.00;;
7375;SDS011;3728;42.266;24.944;2023-02-26T04:57:47;28.27;;;13.77;;
7375;SDS011;3728;42.266;24.944;2023-02-26T05:00:20;20.80;;;10.07;;
7375;SDS011;3728;42.266;24.944;2023-02-26T05:02:48;20.80;;;9.67;;
7375;SDS011;3728;42.266;24.944;2023-02-26T05:05:15;25.73;;;8.00;;
7375;SDS011;3728;42.266;24.944;2023-02-26T05:07:43;20.57;;;7.07;;
7375;SDS011;3728;42.266;24.944;2023-02-26T05:10:13;22.23;;;6.70;;
7375;SDS011;3728;42.266;24.944;2023-02-26T05:12:40;19.07;;;6.17;;
7375;SDS011;3728;42.266;24.944;2023-02-26T05:15:08;19.77;;;5.73;;
7375;SDS011;3728;42.266;24.944;2023-02-26T05:17:36;14.37;;;5.80;;
7375;SDS011;3728;42.266;24.944;2023-02-26T05:20:04;16.03;;;5.70;;
7375;SDS011;3728;42.266;24.944;2023-02-26T05:22:36;19.77;;;5.90;;
7375;SDS011;3728;42.266;24.944;2023-02-26T05:25:06;20.40;;;5.00;;
7375;SDS011;3728;42.266;24.944;2023-02-26T05:27:34;15.60;;;5.37;;
7375;SDS011;3728;42.266;24.944;2023-02-26T05:30:02;20.23;;;5.53;;
7375;SDS011;3728;42.266;24.944;2023-02-26T05:32:32;16.23;;;5.23;;
7375;SDS011;3728;42.266;24.944;2023-02-26T05:35:00;17.97;;;5.10;;
7375;SDS011;3728;42.266;24.944;2023-02-26T05:37:27;16.53;;;5.20;;
7375;SDS011;3728;42.266;24.944;2023-02-26T05:39:55;20.50;;;4.83;;
7375;SDS011;3728;42.266;24.944;2023-02-26T05:42:22;13.23;;;4.93;;
7375;SDS011;3728;42.266;24.944;2023-02-26T05:44:50;13.40;;;5.23;;
7375;SDS011;3728;42.266;24.944;2023-02-26T05:47:19;14.77;;;5.10;;
7375;SDS011;3728;42.266;24.944;2023-02-26T05:49:46;10.47;;;4.73;;
7375;SDS011;3728;42.266;24.944;2023-02-26T05:52:14;17.03;;;5.57;;
7375;SDS011;3728;42.266;24.944;2023-02-26T05:54:41;15.33;;;6.00;;
7375;SDS011;3728;42.266;24.944;2023-02-26T05:57:10;14.77;;;5.40;;
7375;SDS011;3728;42.266;24.944;2023-02-26T05:59:38;19.03;;;5.73;;
7375;SDS011;3728;42.266;24.944;2023-02-26T06:02:06;12.47;;;5.47;;
7375;SDS011;3728;42.266;24.944;2023-02-26T06:04:34;14.77;;;5.90;;
7375;SDS011;3728;42.266;24.944;2023-02-26T06:07:02;20.00;;;6.27;;
7375;SDS011;3728;42.266;24.944;2023-02-26T06:09:29;17.53;;;5.63;;
7375;SDS011;3728;42.266;24.944;2023-02-26T06:11:57;15.47;;;5.70;;
7375;SDS011;3728;42.266;24.944;2023-02-26T06:14:24;18.33;;;5.33;;
7375;SDS011;3728;42.266;24.944;2023-02-26T06:16:52;20.13;;;5.90;;
7375;SDS011;3728;42.266;24.944;2023-02-26T06:19:20;19.83;;;5.80;;
7375;SDS011;3728;42.266;24.944;2023-02-26T06:21:48;19.03;;;5.67;;
7375;SDS011;3728;42.266;24.944;2023-02-26T06:24:15;19.73;;;5.30;;
7375;SDS011;3728;42.266;24.944;2023-02-26T06:26:43;24.00;;;6.50;;
7375;SDS011;3728;42.266;24.944;2023-02-26T06:29:10;20.60;;;6.07;;
7375;SDS011;3728;42.266;24.944;2023-02-26T06:31:38;15.37;;;4.93;;
7375;SDS011;3728;42.266;24.944;2023-02-26T06:34:05;15.37;;;5.27;;
7375;SDS011;3728;42.266;24.944;2023-02-26T06:36:33;17.83;;;7.07;;
7375;SDS011;3728;42.266;24.944;2023-02-26T06:39:00;15.23;;;6.20;;
7375;SDS011;3728;42.266;24.944;2023-02-26T06:41:29;20.20;;;5.60;;
7375;SDS011;3728;42.266;24.944;2023-02-26T06:43:56;20.97;;;5.17;;
7375;SDS011;3728;42.266;24.944;2023-02-26T06:46:24;25.47;;;6.10;;
7375;SDS011;3728;42.266;24.944;2023-02-26T06:48:52;19.00;;;5.60;;
7375;SDS011;3728;42.266;24.944;2023-02-26T06:51:20;19.93;;;6.53;;
7375;SDS011;3728;42.266;24.944;2023-02-26T06:53:47;14.60;;;5.03;;
7375;SDS011;3728;42.266;24.944;2023-02-26T06:56:15;17.13;;;4.33;;
7375;SDS011;3728;42.266;24.944;2023-02-26T06:58:43;18.27;;;5.10;;
7375;SDS011;3728;42.266;24.944;2023-02-26T07:01:10;18.43;;;4.43;;
7375;SDS011;3728;42.266;24.944;2023-02-26T07:03:38;18.57;;;4.40;;
7375;SDS011;3728;42.266;24.944;2023-02-26T07:06:06;20.60;;;5.43;;
7375;SDS011;3728;42.266;24.944;2023-02-26T07:08:52;35.00;;;14.83;;
7375;SDS011;3728;42.266;24.944;2023-02-26T07:11:20;15.20;;;4.70;;
7375;SDS011;3728;42.266;24.944;2023-02-26T07:13:48;15.50;;;4.37;;
7375;SDS011;3728;42.266;24.944;2023-02-26T07:16:17;14.97;;;4.37;;
7375;SDS011;3728;42.266;24.944;2023-02-26T07:18:45;15.00;;;4.63;;
7375;SDS011;3728;42.266;24.944;2023-02-26T07:21:12;17.47;;;4.93;;
7375;SDS011;3728;42.266;24.944;2023-02-26T07:23:40;14.17;;;4.90;;
7375;SDS011;3728;42.266;24.944;2023-02-26T07:26:08;13.97;;;4.07;;
7375;SDS011;3728;42.266;24.944;2023-02-26T07:28:39;14.60;;;5.10;;
7375;SDS011;3728;42.266;24.944;2023-02-26T07:31:07;11.67;;;4.30;;
7375;SDS011;3728;42.266;24.944;2023-02-26T07:33:35;16.33;;;5.10;;
7375;SDS011;3728;42.266;24.944;2023-02-26T07:36:04;14.97;;;5.03;;
7375;SDS011;3728;42.266;24.944;2023-02-26T07:38:32;15.77;;;4.10;;
7375;SDS011;3728;42.266;24.944;2023-02-26T07:40:59;24.37;;;4.43;;
7375;SDS011;3728;42.266;24.944;2023-02-26T07:43:27;19.40;;;4.03;;
7375;SDS011;3728;42.266;24.944;2023-02-26T07:45:54;12.63;;;3.57;;
7375;SDS011;3728;42.266;24.944;2023-02-26T07:48:22;19.70;;;3.70;;
7375;SDS011;3728;42.266;24.944;2023-02-26T07:50:53;10.63;;;3.17;;
7375;SDS011;3728;42.266;24.944;2023-02-26T07:53:21;14.20;;;4.07;;
7375;SDS011;3728;42.266;24.944;2023-02-26T07:55:49;20.90;;;3.93;;
7375;SDS011;3728;42.266;24.944;2023-02-26T07:58:17;16.10;;;4.20;;
7375;SDS011;3728;42.266;24.944;2023-02-26T08:00:44;14.27;;;4.37;;
7375;SDS011;3728;42.266;24.944;2023-02-26T08:03:12;13.93;;;3.87;;
7375;SDS011;3728;42.266;24.944;2023-02-26T08:05:40;16.73;;;4.63;;
7375;SDS011;3728;42.266;24.944;2023-02-26T08:08:08;16.73;;;4.30;;
7375;SDS011;3728;42.266;24.944;2023-02-26T08:10:36;18.53;;;3.67;;
7375;SDS011;3728;42.266;24.944;2023-02-26T08:13:07;15.97;;;3.93;;
7375;SDS011;3728;42.266;24.944;2023-02-26T08:15:35;16.23;;;4.50;;
7375;SDS011;3728;42.266;24.944;2023-02-26T08:18:03;17.30;;;4.23;;
7375;SDS011;3728;42.266;24.944;2023-02-26T08:20:31;14.03;;;3.83;;
7375;SDS011;3728;42.266;24.944;2023-02-26T08:22:59;22.63;;;5.40;;
7375;SDS011;3728;42.266;24.944;2023-02-26T08:25:28;15.43;;;3.90;;
7375;SDS011;3728;42.266;24.944;2023-02-26T08:27:58;18.53;;;4.20;;
7375;SDS011;3728;42.266;24.944;2023-02-26T08:30:27;16.67;;;3.93;;
7375;SDS011;3728;42.266;24.944;2023-02-26T08:32:55;13.90;;;4.20;;
7375;SDS011;3728;42.266;24.944;2023-02-26T08:35:22;12.40;;;3.63;;
7375;SDS011;3728;42.266;24.944;2023-02-26T08:37:50;19.13;;;4.80;;
7375;SDS011;3728;42.266;24.944;2023-02-26T08:40:18;19.37;;;4.97;;
7375;SDS011;3728;42.266;24.944;2023-02-26T08:42:46;25.20;;;5.13;;
7375;SDS011;3728;42.266;24.944;2023-02-26T08:45:14;15.20;;;4.43;;
7375;SDS011;3728;42.266;24.944;2023-02-26T08:47:41;14.13;;;4.90;;
7375;SDS011;3728;42.266;24.944;2023-02-26T08:50:22;14.97;;;4.90;;
7375;SDS011;3728;42.266;24.944;2023-02-26T08:52:51;15.83;;;5.10;;
7375;SDS011;3728;42.266;24.944;2023-02-26T08:55:21;16.03;;;3.30;;
7375;SDS011;3728;42.266;24.944;2023-02-26T08:57:49;15.83;;;4.90;;
7375;SDS011;3728;42.266;24.944;2023-02-26T09:00:19;17.23;;;4.07;;
7375;SDS011;3728;42.266;24.944;2023-02-26T09:02:49;14.37;;;4.27;;
7375;SDS011;3728;42.266;24.944;2023-02-26T09:05:17;16.37;;;5.03;;
7375;SDS011;3728;42.266;24.944;2023-02-26T09:07:45;17.87;;;5.03;;
7375;SDS011;3728;42.266;24.944;2023-02-26T09:10:13;18.53;;;4.70;;
7375;SDS011;3728;42.266;24.944;2023-02-26T09:12:42;9.40;;;3.17;;
7375;SDS011;3728;42.266;24.944;2023-02-26T09:15:11;12.40;;;4.37;;
7375;SDS011;3728;42.266;24.944;2023-02-26T09:17:41;19.77;;;4.63;;
7375;SDS011;3728;42.266;24.944;2023-02-26T09:20:09;16.50;;;4.23;;
7375;SDS011;3728;42.266;24.944;2023-02-26T09:22:40;10.37;;;2.63;;
7375;SDS011;3728;42.266;24.944;2023-02-26T09:25:09;19.53;;;5.80;;
7375;SDS011;3728;42.266;24.944;2023-02-26T09:27:38;13.00;;;4.40;;
7375;SDS011;3728;42.266;24.944;2023-02-26T09:30:06;13.53;;;4.93;;
7375;SDS011;3728;42.266;24.944;2023-02-26T09:32:34;11.97;;;3.70;;
7375;SDS011;3728;42.266;24.944;2023-02-26T09:35:03;21.13;;;5.03;;
7375;SDS011;3728;42.266;24.944;2023-02-26T09:37:31;11.10;;;3.50;;
7375;SDS011;3728;42.266;24.944;2023-02-26T09:39:59;11.73;;;3.57;;
7375;SDS011;3728;42.266;24.944;2023-02-26T09:45:32;14.00;;;4.03;;
7375;SDS011;3728;42.266;24.944;2023-02-26T09:48:04;17.27;;;4.47;;
7375;SDS011;3728;42.266;24.944;2023-02-26T09:50:45;15.40;;;3.97;;
7375;SDS011;3728;42.266;24.944;2023-02-26T09:53:20;12.97;;;3.50;;
7375;SDS011;3728;42.266;24.944;2023-02-26T09:56:04;12.43;;;3.93;;
7375;SDS011;3728;42.266;24.944;2023-02-26T09:58:42;13.90;;;4.27;;
7375;SDS011;3728;42.266;24.944;2023-02-26T10:06:34;11.83;;;3.00;;
7375;SDS011;3728;42.266;24.944;2023-02-26T10:12:36;17.77;;;4.70;;
7375;SDS011;3728;42.266;24.944;2023-02-26T10:20:54;14.33;;;4.20;;
7375;SDS011;3728;42.266;24.944;2023-02-26T10:23:33;22.63;;;4.23;;
7375;SDS011;3728;42.266;24.944;2023-02-26T10:35:20;143.80;;;11.57;;
7375;SDS011;3728;42.266;24.944;2023-02-26T10:37:58;19.50;;;4.37;;
7375;SDS011;3728;42.266;24.944;2023-02-26T10:43:38;31.97;;;5.30;;
7375;SDS011;3728;42.266;24.944;2023-02-26T10:48:56;16.10;;;3.63;;
7375;SDS011;3728;42.266;24.944;2023-02-26T10:52:16;14.87;;;5.00;;
7375;SDS011;3728;42.266;24.944;2023-02-26T10:58:02;16.60;;;4.20;;
7375;SDS011;3728;42.266;24.944;2023-02-26T11:00:41;21.03;;;4.23;;
7375;SDS011;3728;42.266;24.944;2023-02-26T11:03:15;13.43;;;4.77;;
7375;SDS011;3728;42.266;24.944;2023-02-26T11:06:06;16.80;;;4.27;;
7375;SDS011;3728;42.266;24.944;2023-02-26T11:08:44;9.17;;;3.00;;
7375;SDS011;3728;42.266;24.944;2023-02-26T11:14:06;6.73;;;2.50;;
7375;SDS011;3728;42.266;24.944;2023-02-26T11:16:34;7.93;;;2.50;;
7375;SDS011;3728;42.266;24.944;2023-02-26T11:19:14;8.70;;;3.57;;
7375;SDS011;3728;42.266;24.944;2023-02-26T11:21:45;13.47;;;3.83;;
7375;SDS011;3728;42.266;24.944;2023-02-26T11:24:18;7.00;;;2.83;;
7375;SDS011;3728;42.266;24.944;2023-02-26T11:27:05;7.07;;;3.23;;
7375;SDS011;3728;42.266;24.944;2023-02-26T11:29:42;20.43;;;3.80;;
7375;SDS011;3728;42.266;24.944;2023-02-26T11:32:17;15.07;;;3.10;;
7375;SDS011;3728;42.266;24.944;2023-02-26T11:34:54;14.97;;;3.77;;
7375;SDS011;3728;42.266;24.944;2023-02-26T11:37:29;12.77;;;3.00;;
7375;SDS011;3728;42.266;24.944;2023-02-26T11:42:49;12.33;;;3.23;;
7375;SDS011;3728;42.266;24.944;2023-02-26T11:45:21;7.20;;;2.57;;
7375;SDS011;3728;42.266;24.944;2023-02-26T11:47:56;5.17;;;2.27;;
7375;SDS011;3728;42.266;24.944;2023-02-26T11:50:30;13.20;;;3.53;;
7375;SDS011;3728;42.266;24.944;2023-02-26T11:53:17;12.50;;;3.60;;
7375;SDS011;3728;42.266;24.944;2023-02-26T11:56:07;12.53;;;2.80;;
7375;SDS011;3728;42.266;24.944;2023-02-26T11:58:42;11.70;;;3.17;;
7375;SDS011;3728;42.266;24.944;2023-02-26T12:01:13;13.30;;;4.23;;
7375;SDS011;3728;42.266;24.944;2023-02-26T12:03:46;12.60;;;3.83;;
7375;SDS011;3728;42.266;24.944;2023-02-26T12:06:22;11.57;;;2.97;;
7375;SDS011;3728;42.266;24.944;2023-02-26T12:08:52;14.17;;;3.60;;
7375;SDS011;3728;42.266;24.944;2023-02-26T12:29:06;27.17;;;4.57;;
7375;SDS011;3728;42.266;24.944;2023-02-26T13:01:58;12.50;;;4.17;;
7375;SDS011;3728;42.266;24.944;2023-02-26T13:05:15;12.60;;;4.20;;
7375;SDS011;3728;42.266;24.944;2023-02-26T13:17:07;22.50;;;4.63;;
7375;SDS011;3728;42.266;24.944;2023-02-26T13:20:24;18.60;;;5.00;;
7375;SDS011;3728;42.266;24.944;2023-02-26T13:23:11;11.60;;;3.93;;
7375;SDS011;3728;42.266;24.944;2023-02-26T13:25:50;14.57;;;4.03;;
7375;SDS011;3728;42.266;24.944;2023-02-26T13:34:11;11.23;;;3.43;;
7375;SDS011;3728;42.266;24.944;2023-02-26T13:36:46;13.30;;;4.30;;
7375;SDS011;3728;42.266;24.944;2023-02-26T13:39:24;10.23;;;3.33;;
7375;SDS011;3728;42.266;24.944;2023-02-26T13:51:36;16.90;;;3.50;;
7375;SDS011;3728;42.266;24.944;2023-02-26T13:59:36;10.13;;;3.27;;
7375;SDS011;3728;42.266;24.944;2023-02-26T14:05:00;10.13;;;3.47;;
7375;SDS011;3728;42.266;24.944;2023-02-26T14:10:57;5.53;;;2.63;;
7375;SDS011;3728;42.266;24.944;2023-02-26T14:13:34;13.70;;;4.50;;
7375;SDS011;3728;42.266;24.944;2023-02-26T14:16:19;11.73;;;3.70;;
7375;SDS011;3728;42.266;24.944;2023-02-26T14:19:04;13.23;;;4.07;;
7375;SDS011;3728;42.266;24.944;2023-02-26T14:21:54;10.93;;;3.53;;
7375;SDS011;3728;42.266;24.944;2023-02-26T14:24:45;16.70;;;4.27;;
7375;SDS011;3728;42.266;24.944;2023-02-26T14:27:44;14.43;;;4.90;;
7375;SDS011;3728;42.266;24.944;2023-02-26T14:30:18;10.07;;;3.07;;
7375;SDS011;3728;42.266;24.944;2023-02-26T14:33:07;12.77;;;3.83;;
7375;SDS011;3728;42.266;24.944;2023-02-26T14:36:13;9.40;;;3.43;;
7375;SDS011;3728;42.266;24.944;2023-02-26T14:39:22;21.97;;;4.27;;
7375;SDS011;3728;42.266;24.944;2023-02-26T14:42:05;17.00;;;4.33;;
7375;SDS011;3728;42.266;24.944;2023-02-26T14:44:51;13.03;;;3.50;;
7375;SDS011;3728;42.266;24.944;2023-02-26T14:47:43;6.90;;;3.70;;
7375;SDS011;3728;42.266;24.944;2023-02-26T14:50:19;8.43;;;2.93;;
7375;SDS011;3728;42.266;24.944;2023-02-26T14:55:55;13.00;;;4.43;;
7375;SDS011;3728;42.266;24.944;2023-02-26T15:06:33;11.80;;;3.87;;
7375;SDS011;3728;42.266;24.944;2023-02-26T15:09:32;15.60;;;4.07;;
7375;SDS011;3728;42.266;24.944;2023-02-26T15:12:26;7.33;;;3.30;;
7375;SDS011;3728;42.266;24.944;2023-02-26T15:21:05;13.73;;;5.00;;
7375;SDS011;3728;42.266;24.944;2023-02-26T15:23:57;17.13;;;4.10;;
7375;SDS011;3728;42.266;24.944;2023-02-26T15:26:30;12.63;;;3.80;;
7375;SDS011;3728;42.266;24.944;2023-02-26T15:29:04;10.07;;;3.80;;
7375;SDS011;3728;42.266;24.944;2023-02-26T15:31:57;14.70;;;4.53;;
7375;SDS011;3728;42.266;24.944;2023-02-26T15:34:47;13.53;;;4.33;;
7375;SDS011;3728;42.266;24.944;2023-02-26T15:37:26;14.83;;;4.80;;
7375;SDS011;3728;42.266;24.944;2023-02-26T15:39:59;13.63;;;4.20;;
7375;SDS011;3728;42.266;24.944;2023-02-26T15:42:32;12.53;;;4.23;;
7375;SDS011;3728;42.266;24.944;2023-02-26T15:45:09;17.93;;;4.43;;
7375;SDS011;3728;42.266;24.944;2023-02-26T15:51:00;15.90;;;4.63;;
7375;SDS011;3728;42.266;24.944;2023-02-26T15:53:36;11.13;;;3.83;;
7375;SDS011;3728;42.266;24.944;2023-02-26T15:56:15;12.00;;;3.50;;
7375;SDS011;3728;42.266;24.944;2023-02-26T15:58:55;15.93;;;3.67;;
7375;SDS011;3728;42.266;24.944;2023-02-26T16:01:52;12.03;;;3.30;;
7375;SDS011;3728;42.266;24.944;2023-02-26T16:04:23;12.03;;;3.67;;
7375;SDS011;3728;42.266;24.944;2023-02-26T16:06:55;9.53;;;3.33;;
7375;SDS011;3728;42.266;24.944;2023-02-26T16:09:34;8.63;;;3.00;;
7375;SDS011;3728;42.266;24.944;2023-02-26T16:12:07;9.53;;;3.50;;
7375;SDS011;3728;42.266;24.944;2023-02-26T16:14:49;6.90;;;3.40;;
7375;SDS011;3728;42.266;24.944;2023-02-26T16:17:27;13.57;;;4.40;;
7375;SDS011;3728;42.266;24.944;2023-02-26T16:20:00;13.20;;;4.40;;
7375;SDS011;3728;42.266;24.944;2023-02-26T16:22:36;11.83;;;3.53;;
7375;SDS011;3728;42.266;24.944;2023-02-26T16:25:14;9.83;;;3.17;;
7375;SDS011;3728;42.266;24.944;2023-02-26T16:28:26;14.77;;;4.10;;
7375;SDS011;3728;42.266;24.944;2023-02-26T16:31:01;8.23;;;3.17;;
7375;SDS011;3728;42.266;24.944;2023-02-26T16:33:38;10.80;;;3.70;;
7375;SDS011;3728;42.266;24.944;2023-02-26T16:36:12;9.93;;;3.30;;
7375;SDS011;3728;42.266;24.944;2023-02-26T16:38:47;11.70;;;3.00;;
7375;SDS011;3728;42.266;24.944;2023-02-26T16:41:29;5.80;;;2.87;;
7375;SDS011;3728;42.266;24.944;2023-02-26T16:46:57;8.87;;;3.00;;
7375;SDS011;3728;42.266;24.944;2023-02-26T16:49:32;11.67;;;3.27;;
7375;SDS011;3728;42.266;24.944;2023-02-26T16:52:03;7.13;;;3.30;;
7375;SDS011;3728;42.266;24.944;2023-02-26T16:54:33;9.20;;;3.30;;
7375;SDS011;3728;42.266;24.944;2023-02-26T16:57:22;13.60;;;3.30;;
7375;SDS011;3728;42.266;24.944;2023-02-26T17:00:04;18.90;;;7.87;;
7375;SDS011;3728;42.266;24.944;2023-02-26T17:02:45;11.17;;;4.93;;
7375;SDS011;3728;42.266;24.944;2023-02-26T17:05:24;7.60;;;3.70;;
7375;SDS011;3728;42.266;24.944;2023-02-26T17:10:38;14.27;;;4.13;;
7375;SDS011;3728;42.266;24.944;2023-02-26T17:13:15;7.47;;;3.27;;
7375;SDS011;3728;42.266;24.944;2023-02-26T17:15:58;8.37;;;2.83;;
7375;SDS011;3728;42.266;24.944;2023-02-26T17:18:36;7.83;;;2.80;;
7375;SDS011;3728;42.266;24.944;2023-02-26T17:21:04;11.60;;;4.40;;
7375;SDS011;3728;42.266;24.944;2023-02-26T17:23:52;8.53;;;3.23;;
7375;SDS011;3728;42.266;24.944;2023-02-26T17:26:22;10.80;;;3.40;;
7375;SDS011;3728;42.266;24.944;2023-02-26T17:28:50;8.63;;;3.30;;
7375;SDS011;3728;42.266;24.944;2023-02-26T17:31:19;11.27;;;3.53;;
7375;SDS011;3728;42.266;24.944;2023-02-26T17:33:51;7.33;;;3.23;;
7375;SDS011;3728;42.266;24.944;2023-02-26T17:36:22;9.50;;;3.47;;
7375;SDS011;3728;42.266;24.944;2023-02-26T17:38:53;6.77;;;3.40;;
7375;SDS011;3728;42.266;24.944;2023-02-26T17:41:44;18.97;;;5.20;;
7375;SDS011;3728;42.266;24.944;2023-02-26T17:44:12;13.10;;;3.70;;
7375;SDS011;3728;42.266;24.944;2023-02-26T17:46:40;7.67;;;3.10;;
7375;SDS011;3728;42.266;24.944;2023-02-26T17:49:09;8.33;;;3.50;;
7375;SDS011;3728;42.266;24.944;2023-02-26T17:51:44;9.03;;;3.50;;
7375;SDS011;3728;42.266;24.944;2023-02-26T17:54:15;9.43;;;3.73;;
7375;SDS011;3728;42.266;24.944;2023-02-26T17:56:43;12.37;;;3.73;;
7375;SDS011;3728;42.266;24.944;2023-02-26T17:59:11;14.90;;;3.83;;
7375;SDS011;3728;42.266;24.944;2023-02-26T18:01:41;11.00;;;3.43;;
7375;SDS011;3728;42.266;24.944;2023-02-26T18:04:09;15.77;;;3.77;;
7375;SDS011;3728;42.266;24.944;2023-02-26T18:06:38;18.27;;;4.27;;
7375;SDS011;3728;42.266;24.944;2023-02-26T18:09:06;10.77;;;4.33;;
7375;SDS011;3728;42.266;24.944;2023-02-26T18:11:37;10.13;;;3.97;;
7375;SDS011;3728;42.266;24.944;2023-02-26T18:14:06;13.63;;;4.57;;
7375;SDS011;3728;42.266;24.944;2023-02-26T18:16:40;11.43;;;3.90;;
7375;SDS011;3728;42.266;24.944;2023-02-26T18:19:12;12.73;;;4.13;;
7375;SDS011;3728;42.266;24.944;2023-02-26T18:21:42;12.93;;;4.43;;
7375;SDS011;3728;42.266;24.944;2023-02-26T18:24:22;11.60;;;4.17;;
7375;SDS011;3728;42.266;24.944;2023-02-26T18:26:50;11.73;;;4.73;;
7375;SDS011;3728;42.266;24.944;2023-02-26T18:29:18;6.87;;;3.67;;
7375;SDS011;3728;42.266;24.944;2023-02-26T18:31:48;14.93;;;7.83;;
7375;SDS011;3728;42.266;24.944;2023-02-26T18:34:17;8.30;;;3.20;;
7375;SDS011;3728;42.266;24.944;2023-02-26T18:36:45;7.50;;;3.17;;
7375;SDS011;3728;42.266;24.944;2023-02-26T18:39:14;10.17;;;3.43;;
7375;SDS011;3728;42.266;24.944;2023-02-26T18:41:45;9.23;;;3.90;;
7375;SDS011;3728;42.266;24.944;2023-02-26T18:44:14;8.17;;;3.80;;
7375;SDS011;3728;42.266;24.944;2023-02-26T18:46:42;14.07;;;4.17;;
7375;SDS011;3728;42.266;24.944;2023-02-26T18:49:17;9.80;;;3.63;;
7375;SDS011;3728;42.266;24.944;2023-02-26T18:52:07;9.00;;;3.83;;
7375;SDS011;3728;42.266;24.944;2023-02-26T18:54:41;10.17;;;3.87;;
7375;SDS011;3728;42.266;24.944;2023-02-26T18:57:19;8.40;;;3.53;;
7375;SDS011;3728;42.266;24.944;2023-02-26T18:59:51;14.73;;;4.43;;